sensor_id;sensor_type;location;lat;lon;timestamp;temperature;humidity
43087;DHT22;28708;52.224;6.924;2023-05-19T00:01:27;9.60;99.90
43087;DHT22;28708;52.224;6.924;2023-05-19T00:03:57;9.60;99.90
43087;DHT22;28708;52.224;6.924;2023-05-19T00:06:28;9.50;99.90
43087;DHT22;28708;52.224;6.924;2023-05-19T00:09:04;9.50;99.90
43087;DHT22;28708;52.224;6.924;2023-05-19T00:11:32;9.60;99.90
43087;DHT22;28708;52.224;6.924;2023-05-19T00:13:58;9.60;99.90
43087;DHT22;28708;52.224;6.924;2023-05-19T00:16:25;9.50;99.90
43087;DHT22;28708;52.224;6.924;2023-05-19T00:18:51;9.40;99.90
43087;DHT22;28708;52.224;6.924;2023-05-19T00:21:17;9.30;99.90
43087;DHT22;28708;52.224;6.924;2023-05-19T00:23:43;9.20;99.90
43087;DHT22;28708;52.224;6.924;2023-05-19T00:26:09;9.20;99.90
43087;DHT22;28708;52.224;6.924;2023-05-19T00:28:37;9.20;99.90
43087;DHT22;28708;52.224;6.924;2023-05-19T00:31:04;9.30;99.90
43087;DHT22;28708;52.224;6.924;2023-05-19T00:33:30;9.30;99.90
43087;DHT22;28708;52.224;6.924;2023-05-19T00:35:58;9.20;99.90
43087;DHT22;28708;52.224;6.924;2023-05-19T00:38:24;9.10;99.90
43087;DHT22;28708;52.224;6.924;2023-05-19T00:40:50;9.10;99.90
43087;DHT22;28708;52.224;6.924;2023-05-19T00:43:16;9.10;99.90
43087;DHT22;28708;52.224;6.924;2023-05-19T00:45:42;9.10;99.90
43087;DHT22;28708;52.224;6.924;2023-05-19T00:48:07;9.10;99.90
43087;DHT22;28708;52.224;6.924;2023-05-19T00:50:33;9.10;99.90
43087;DHT22;28708;52.224;6.924;2023-05-19T00:52:59;9.10;99.90
43087;DHT22;28708;52.224;6.924;2023-05-19T00:55:28;9.20;99.90
43087;DHT22;28708;52.224;6.924;2023-05-19T00:57:55;9.10;99.90
43087;DHT22;28708;52.224;6.924;2023-05-19T01:00:22;8.90;99.90
43087;DHT22;28708;52.224;6.924;2023-05-19T01:02:47;8.90;99.90
43087;DHT22;28708;52.224;6.924;2023-05-19T01:05:15;9.00;99.90
43087;DHT22;28708;52.224;6.924;2023-05-19T01:07:41;8.90;99.90
43087;DHT22;28708;52.224;6.924;2023-05-19T01:10:08;8.90;99.90
43087;DHT22;28708;52.224;6.924;2023-05-19T01:12:34;8.80;99.90
43087;DHT22;28708;52.224;6.924;2023-05-19T01:15:02;8.80;99.90
43087;DHT22;28708;52.224;6.924;2023-05-19T01:20:34;8.90;99.90
43087;DHT22;28708;52.224;6.924;2023-05-19T01:26:22;8.70;99.90
43087;DHT22;28708;52.224;6.924;2023-05-19T01:31:53;8.70;99.90
43087;DHT22;28708;52.224;6.924;2023-05-19T01:34:20;8.80;99.90
43087;DHT22;28708;52.224;6.924;2023-05-19T01:36:48;8.80;99.90
43087;DHT22;28708;52.224;6.924;2023-05-19T01:39:14;8.70;99.90
43087;DHT22;28708;52.224;6.924;2023-05-19T01:41:41;8.60;99.90
43087;DHT22;28708;52.224;6.924;2023-05-19T01:44:08;8.50;99.90
43087;DHT22;28708;52.224;6.924;2023-05-19T01:46:34;8.50;99.90
43087;DHT22;28708;52.224;6.924;2023-05-19T01:49:02;8.50;99.90
43087;DHT22;28708;52.224;6.924;2023-05-19T01:51:28;8.50;99.90
43087;DHT22;28708;52.224;6.924;2023-05-19T01:53:53;8.40;99.90
43087;DHT22;28708;52.224;6.924;2023-05-19T01:56:31;8.50;99.90
43087;DHT22;28708;52.224;6.924;2023-05-19T01:59:05;8.50;99.90
43087;DHT22;28708;52.224;6.924;2023-05-19T02:01:52;8.50;99.90
43087;DHT22;28708;52.224;6.924;2023-05-19T02:04:28;8.60;99.90
43087;DHT22;28708;52.224;6.924;2023-05-19T02:12:24;8.50;99.90
43087;DHT22;28708;52.224;6.924;2023-05-19T02:15:17;8.40;99.90
43087;DHT22;28708;52.224;6.924;2023-05-19T02:17:47;8.40;99.90
43087;DHT22;28708;52.224;6.924;2023-05-19T02:20:16;8.30;99.90
43087;DHT22;28708;52.224;6.924;2023-05-19T02:22:42;8.30;99.90
43087;DHT22;28708;52.224;6.924;2023-05-19T02:25:09;8.30;99.90
43087;DHT22;28708;52.224;6.924;2023-05-19T02:27:36;8.20;99.90
43087;DHT22;28708;52.224;6.924;2023-05-19T02:30:05;8.30;99.90
43087;DHT22;28708;52.224;6.924;2023-05-19T02:32:31;8.20;99.90
43087;DHT22;28708;52.224;6.924;2023-05-19T02:34:57;8.30;99.90
43087;DHT22;28708;52.224;6.924;2023-05-19T02:37:23;8.20;99.90
43087;DHT22;28708;52.224;6.924;2023-05-19T02:39:49;8.10;99.90
43087;DHT22;28708;52.224;6.924;2023-05-19T02:42:16;8.20;99.90
43087;DHT22;28708;52.224;6.924;2023-05-19T02:44:43;8.10;99.90
43087;DHT22;28708;52.224;6.924;2023-05-19T02:47:08;8.00;99.90
43087;DHT22;28708;52.224;6.924;2023-05-19T02:49:34;8.10;99.90
43087;DHT22;28708;52.224;6.924;2023-05-19T02:52:03;8.00;99.90
43087;DHT22;28708;52.224;6.924;2023-05-19T02:54:29;8.00;99.90
43087;DHT22;28708;52.224;6.924;2023-05-19T02:56:55;8.10;99.90
43087;DHT22;28708;52.224;6.924;2023-05-19T02:59:21;8.00;99.90
43087;DHT22;28708;52.224;6.924;2023-05-19T03:01:48;8.10;99.90
43087;DHT22;28708;52.224;6.924;2023-05-19T03:04:13;8.00;99.90
43087;DHT22;28708;52.224;6.924;2023-05-19T03:06:39;8.00;99.90
43087;DHT22;28708;52.224;6.924;2023-05-19T03:09:06;8.00;99.90
43087;DHT22;28708;52.224;6.924;2023-05-19T03:11:32;8.00;99.90
43087;DHT22;28708;52.224;6.924;2023-05-19T03:13:58;8.00;99.90
43087;DHT22;28708;52.224;6.924;2023-05-19T03:16:23;8.00;99.90
43087;DHT22;28708;52.224;6.924;2023-05-19T03:18:49;7.90;99.90
43087;DHT22;28708;52.224;6.924;2023-05-19T03:21:15;8.00;99.90
43087;DHT22;28708;52.224;6.924;2023-05-19T03:23:41;8.00;99.90
43087;DHT22;28708;52.224;6.924;2023-05-19T03:26:08;8.00;99.90
43087;DHT22;28708;52.224;6.924;2023-05-19T03:28:33;8.00;99.90
43087;DHT22;28708;52.224;6.924;2023-05-19T03:30:59;8.00;99.90
43087;DHT22;28708;52.224;6.924;2023-05-19T03:33:29;8.00;99.90
43087;DHT22;28708;52.224;6.924;2023-05-19T03:35:56;7.90;99.90
43087;DHT22;28708;52.224;6.924;2023-05-19T03:38:22;8.00;99.90
43087;DHT22;28708;52.224;6.924;2023-05-19T03:40:53;8.00;99.90
43087;DHT22;28708;52.224;6.924;2023-05-19T03:43:19;7.90;99.90
43087;DHT22;28708;52.224;6.924;2023-05-19T03:45:51;7.90;99.90
43087;DHT22;28708;52.224;6.924;2023-05-19T03:48:43;7.90;99.90
43087;DHT22;28708;52.224;6.924;2023-05-19T03:51:15;7.90;99.90
43087;DHT22;28708;52.224;6.924;2023-05-19T03:53:41;7.90;99.90
43087;DHT22;28708;52.224;6.924;2023-05-19T03:56:07;7.90;99.90
43087;DHT22;28708;52.224;6.924;2023-05-19T03:58:33;7.90;99.90
43087;DHT22;28708;52.224;6.924;2023-05-19T04:00:58;7.90;99.90
43087;DHT22;28708;52.224;6.924;2023-05-19T04:03:24;7.90;99.90
43087;DHT22;28708;52.224;6.924;2023-05-19T04:05:51;8.00;99.90
43087;DHT22;28708;52.224;6.924;2023-05-19T04:08:17;7.90;99.90
43087;DHT22;28708;52.224;6.924;2023-05-19T04:10:42;7.90;99.90
43087;DHT22;28708;52.224;6.924;2023-05-19T04:13:08;7.90;99.90
43087;DHT22;28708;52.224;6.924;2023-05-19T04:15:34;8.00;99.90
43087;DHT22;28708;52.224;6.924;2023-05-19T04:17:59;8.00;99.90
43087;DHT22;28708;52.224;6.924;2023-05-19T04:20:25;8.00;99.90
43087;DHT22;28708;52.224;6.924;2023-05-19T04:22:51;8.00;99.90
43087;DHT22;28708;52.224;6.924;2023-05-19T04:25:16;8.00;99.90
43087;DHT22;28708;52.224;6.924;2023-05-19T04:27:44;8.00;99.90
43087;DHT22;28708;52.224;6.924;2023-05-19T04:30:10;8.10;99.90
43087;DHT22;28708;52.224;6.924;2023-05-19T04:32:37;8.10;99.90
43087;DHT22;28708;52.224;6.924;2023-05-19T04:35:04;8.10;99.90
43087;DHT22;28708;52.224;6.924;2023-05-19T04:37:30;8.00;99.90
43087;DHT22;28708;52.224;6.924;2023-05-19T04:39:57;8.10;99.90
43087;DHT22;28708;52.224;6.924;2023-05-19T04:42:24;8.10;99.90
43087;DHT22;28708;52.224;6.924;2023-05-19T04:44:51;8.10;99.90
43087;DHT22;28708;52.224;6.924;2023-05-19T04:47:17;8.20;99.90
43087;DHT22;28708;52.224;6.924;2023-05-19T04:49:45;8.20;99.90
43087;DHT22;28708;52.224;6.924;2023-05-19T04:52:11;8.30;99.90
43087;DHT22;28708;52.224;6.924;2023-05-19T04:54:38;8.30;99.90
43087;DHT22;28708;52.224;6.924;2023-05-19T04:57:05;8.30;99.90
43087;DHT22;28708;52.224;6.924;2023-05-19T04:59:34;8.40;99.90
43087;DHT22;28708;52.224;6.924;2023-05-19T05:02:00;8.40;99.90
43087;DHT22;28708;52.224;6.924;2023-05-19T05:04:28;8.50;99.90
43087;DHT22;28708;52.224;6.924;2023-05-19T05:06:53;8.60;99.90
43087;DHT22;28708;52.224;6.924;2023-05-19T05:09:20;8.60;99.90
43087;DHT22;28708;52.224;6.924;2023-05-19T05:11:46;8.70;99.90
43087;DHT22;28708;52.224;6.924;2023-05-19T05:14:12;8.70;99.90
43087;DHT22;28708;52.224;6.924;2023-05-19T05:16:38;8.80;99.90
43087;DHT22;28708;52.224;6.924;2023-05-19T05:19:05;8.90;99.90
43087;DHT22;28708;52.224;6.924;2023-05-19T05:21:31;8.90;99.90
43087;DHT22;28708;52.224;6.924;2023-05-19T05:23:58;9.00;99.90
43087;DHT22;28708;52.224;6.924;2023-05-19T05:26:29;9.10;99.90
43087;DHT22;28708;52.224;6.924;2023-05-19T05:28:56;9.10;99.90
43087;DHT22;28708;52.224;6.924;2023-05-19T05:31:21;9.20;99.90
43087;DHT22;28708;52.224;6.924;2023-05-19T05:33:47;9.20;99.90
43087;DHT22;28708;52.224;6.924;2023-05-19T05:36:14;9.20;99.90
43087;DHT22;28708;52.224;6.924;2023-05-19T05:38:40;9.20;99.90
43087;DHT22;28708;52.224;6.924;2023-05-19T05:41:05;9.30;99.90
43087;DHT22;28708;52.224;6.924;2023-05-19T05:43:33;9.40;99.90
43087;DHT22;28708;52.224;6.924;2023-05-19T05:46:01;9.40;99.90
43087;DHT22;28708;52.224;6.924;2023-05-19T05:48:27;9.50;99.90
43087;DHT22;28708;52.224;6.924;2023-05-19T05:50:55;9.60;99.90
43087;DHT22;28708;52.224;6.924;2023-05-19T05:53:25;9.60;99.90
43087;DHT22;28708;52.224;6.924;2023-05-19T05:55:54;9.70;99.90
43087;DHT22;28708;52.224;6.924;2023-05-19T05:58:23;9.80;99.90
43087;DHT22;28708;52.224;6.924;2023-05-19T06:00:48;10.00;99.90
43087;DHT22;28708;52.224;6.924;2023-05-19T06:03:16;10.00;99.90
43087;DHT22;28708;52.224;6.924;2023-05-19T06:05:42;10.10;99.90
43087;DHT22;28708;52.224;6.924;2023-05-19T06:08:08;10.10;99.90
43087;DHT22;28708;52.224;6.924;2023-05-19T06:10:34;10.30;99.90
43087;DHT22;28708;52.224;6.924;2023-05-19T06:13:01;10.40;99.90
43087;DHT22;28708;52.224;6.924;2023-05-19T06:15:27;10.40;99.90
43087;DHT22;28708;52.224;6.924;2023-05-19T06:18:08;10.60;99.90
43087;DHT22;28708;52.224;6.924;2023-05-19T06:20:33;10.80;99.90
43087;DHT22;28708;52.224;6.924;2023-05-19T06:23:00;10.80;99.90
43087;DHT22;28708;52.224;6.924;2023-05-19T06:25:27;10.90;99.90
43087;DHT22;28708;52.224;6.924;2023-05-19T06:27:53;11.00;99.90
43087;DHT22;28708;52.224;6.924;2023-05-19T06:30:20;11.00;99.90
43087;DHT22;28708;52.224;6.924;2023-05-19T06:32:55;11.10;99.90
43087;DHT22;28708;52.224;6.924;2023-05-19T06:35:21;11.30;99.90
43087;DHT22;28708;52.224;6.924;2023-05-19T06:37:47;11.40;99.90
43087;DHT22;28708;52.224;6.924;2023-05-19T06:40:14;11.60;99.90
43087;DHT22;28708;52.224;6.924;2023-05-19T06:42:44;11.70;99.90
43087;DHT22;28708;52.224;6.924;2023-05-19T06:45:17;11.80;99.90
43087;DHT22;28708;52.224;6.924;2023-05-19T06:47:47;11.90;99.90
43087;DHT22;28708;52.224;6.924;2023-05-19T06:50:14;11.90;99.90
43087;DHT22;28708;52.224;6.924;2023-05-19T06:52:41;11.90;99.90
43087;DHT22;28708;52.224;6.924;2023-05-19T06:55:07;11.90;99.90
43087;DHT22;28708;52.224;6.924;2023-05-19T06:57:35;12.00;99.90
43087;DHT22;28708;52.224;6.924;2023-05-19T07:00:01;12.10;99.90
43087;DHT22;28708;52.224;6.924;2023-05-19T07:02:27;12.10;99.90
43087;DHT22;28708;52.224;6.924;2023-05-19T07:04:52;12.20;99.90
43087;DHT22;28708;52.224;6.924;2023-05-19T07:07:20;12.30;99.90
43087;DHT22;28708;52.224;6.924;2023-05-19T07:09:46;12.40;99.90
43087;DHT22;28708;52.224;6.924;2023-05-19T07:12:12;12.50;99.90
43087;DHT22;28708;52.224;6.924;2023-05-19T07:14:37;12.60;99.90
43087;DHT22;28708;52.224;6.924;2023-05-19T07:17:04;12.80;99.90
43087;DHT22;28708;52.224;6.924;2023-05-19T07:19:30;12.90;99.90
43087;DHT22;28708;52.224;6.924;2023-05-19T07:21:57;13.00;99.90
43087;DHT22;28708;52.224;6.924;2023-05-19T07:24:24;13.10;99.90
43087;DHT22;28708;52.224;6.924;2023-05-19T07:26:49;13.20;99.90
43087;DHT22;28708;52.224;6.924;2023-05-19T07:29:15;13.30;99.90
43087;DHT22;28708;52.224;6.924;2023-05-19T07:31:40;13.40;99.90
43087;DHT22;28708;52.224;6.924;2023-05-19T07:34:06;13.50;99.90
43087;DHT22;28708;52.224;6.924;2023-05-19T07:36:32;13.60;99.90
43087;DHT22;28708;52.224;6.924;2023-05-19T07:38:58;13.70;99.90
43087;DHT22;28708;52.224;6.924;2023-05-19T07:41:24;13.80;99.90
43087;DHT22;28708;52.224;6.924;2023-05-19T07:43:50;13.80;99.90
43087;DHT22;28708;52.224;6.924;2023-05-19T07:46:16;13.80;99.90
43087;DHT22;28708;52.224;6.924;2023-05-19T07:48:41;13.80;99.90
43087;DHT22;28708;52.224;6.924;2023-05-19T07:51:07;13.80;99.90
43087;DHT22;28708;52.224;6.924;2023-05-19T07:53:35;13.80;99.90
43087;DHT22;28708;52.224;6.924;2023-05-19T07:56:01;13.90;99.90
43087;DHT22;28708;52.224;6.924;2023-05-19T07:58:27;14.00;99.90
43087;DHT22;28708;52.224;6.924;2023-05-19T08:00:56;14.10;99.90
43087;DHT22;28708;52.224;6.924;2023-05-19T08:03:23;14.30;99.90
43087;DHT22;28708;52.224;6.924;2023-05-19T08:05:49;14.50;99.90
43087;DHT22;28708;52.224;6.924;2023-05-19T08:08:15;14.50;99.90
43087;DHT22;28708;52.224;6.924;2023-05-19T08:10:41;14.70;99.90
43087;DHT22;28708;52.224;6.924;2023-05-19T08:13:07;14.70;99.90
43087;DHT22;28708;52.224;6.924;2023-05-19T08:15:33;14.80;99.90
43087;DHT22;28708;52.224;6.924;2023-05-19T08:17:58;15.00;99.90
43087;DHT22;28708;52.224;6.924;2023-05-19T08:20:24;15.10;99.90
43087;DHT22;28708;52.224;6.924;2023-05-19T08:22:49;15.70;99.90
43087;DHT22;28708;52.224;6.924;2023-05-19T08:25:15;16.50;99.90
43087;DHT22;28708;52.224;6.924;2023-05-19T08:27:41;17.20;99.90
43087;DHT22;28708;52.224;6.924;2023-05-19T08:30:07;18.30;99.90
43087;DHT22;28708;52.224;6.924;2023-05-19T08:32:33;19.40;99.90
43087;DHT22;28708;52.224;6.924;2023-05-19T08:34:58;20.30;99.40
43087;DHT22;28708;52.224;6.924;2023-05-19T08:37:24;20.30;94.60
43087;DHT22;28708;52.224;6.924;2023-05-19T08:39:49;20.20;96.00
43087;DHT22;28708;52.224;6.924;2023-05-19T08:42:15;20.70;93.30
43087;DHT22;28708;52.224;6.924;2023-05-19T08:44:41;20.80;92.80
43087;DHT22;28708;52.224;6.924;2023-05-19T08:47:08;20.40;90.80
43087;DHT22;28708;52.224;6.924;2023-05-19T08:49:45;21.00;87.30
43087;DHT22;28708;52.224;6.924;2023-05-19T08:55:21;20.70;85.00
43087;DHT22;28708;52.224;6.924;2023-05-19T08:57:50;21.10;85.30
43087;DHT22;28708;52.224;6.924;2023-05-19T09:00:17;22.10;82.00
43087;DHT22;28708;52.224;6.924;2023-05-19T09:02:46;22.10;80.70
43087;DHT22;28708;52.224;6.924;2023-05-19T09:05:12;22.20;78.60
43087;DHT22;28708;52.224;6.924;2023-05-19T09:07:40;22.30;77.70
43087;DHT22;28708;52.224;6.924;2023-05-19T09:10:07;22.30;75.80
43087;DHT22;28708;52.224;6.924;2023-05-19T09:12:33;22.60;72.90
43087;DHT22;28708;52.224;6.924;2023-05-19T09:15:00;21.60;75.10
43087;DHT22;28708;52.224;6.924;2023-05-19T09:17:26;20.50;76.30
43087;DHT22;28708;52.224;6.924;2023-05-19T09:19:52;19.80;79.70
43087;DHT22;28708;52.224;6.924;2023-05-19T09:22:18;20.30;80.30
43087;DHT22;28708;52.224;6.924;2023-05-19T09:24:46;21.20;79.20
43087;DHT22;28708;52.224;6.924;2023-05-19T09:27:13;20.70;78.20
43087;DHT22;28708;52.224;6.924;2023-05-19T09:29:41;21.30;77.30
43087;DHT22;28708;52.224;6.924;2023-05-19T09:32:07;22.20;75.20
43087;DHT22;28708;52.224;6.924;2023-05-19T09:34:32;22.40;73.00
43087;DHT22;28708;52.224;6.924;2023-05-19T09:36:58;22.90;69.10
43087;DHT22;28708;52.224;6.924;2023-05-19T09:39:24;23.40;67.90
43087;DHT22;28708;52.224;6.924;2023-05-19T09:41:55;22.90;67.30
43087;DHT22;28708;52.224;6.924;2023-05-19T09:44:23;22.70;67.20
43087;DHT22;28708;52.224;6.924;2023-05-19T09:46:53;22.50;70.20
43087;DHT22;28708;52.224;6.924;2023-05-19T09:49:26;22.10;67.60
43087;DHT22;28708;52.224;6.924;2023-05-19T09:51:58;21.90;71.10
43087;DHT22;28708;52.224;6.924;2023-05-19T09:54:25;21.90;69.40
43087;DHT22;28708;52.224;6.924;2023-05-19T09:56:57;22.40;68.90
43087;DHT22;28708;52.224;6.924;2023-05-19T09:59:24;21.20;67.70
43087;DHT22;28708;52.224;6.924;2023-05-19T10:01:54;21.60;71.00
43087;DHT22;28708;52.224;6.924;2023-05-19T10:04:22;22.10;68.80
43087;DHT22;28708;52.224;6.924;2023-05-19T10:06:49;22.40;70.50
43087;DHT22;28708;52.224;6.924;2023-05-19T10:09:25;22.50;69.70
43087;DHT22;28708;52.224;6.924;2023-05-19T10:11:52;22.10;68.10
43087;DHT22;28708;52.224;6.924;2023-05-19T10:14:25;22.20;65.70
43087;DHT22;28708;52.224;6.924;2023-05-19T10:16:52;20.40;70.70
43087;DHT22;28708;52.224;6.924;2023-05-19T10:19:22;19.70;73.40
43087;DHT22;28708;52.224;6.924;2023-05-19T10:21:48;19.40;75.10
43087;DHT22;28708;52.224;6.924;2023-05-19T10:24:14;20.60;73.90
43087;DHT22;28708;52.224;6.924;2023-05-19T10:26:44;22.10;70.90
43087;DHT22;28708;52.224;6.924;2023-05-19T10:29:14;21.80;70.10
43087;DHT22;28708;52.224;6.924;2023-05-19T10:31:42;21.80;70.00
43087;DHT22;28708;52.224;6.924;2023-05-19T10:39:58;22.10;67.00
43087;DHT22;28708;52.224;6.924;2023-05-19T10:42:43;20.20;70.20
43087;DHT22;28708;52.224;6.924;2023-05-19T10:45:19;20.50;72.40
43087;DHT22;28708;52.224;6.924;2023-05-19T10:47:46;22.30;67.90
43087;DHT22;28708;52.224;6.924;2023-05-19T10:50:14;23.70;65.10
43087;DHT22;28708;52.224;6.924;2023-05-19T10:52:40;23.50;63.00
43087;DHT22;28708;52.224;6.924;2023-05-19T10:55:11;23.50;65.00
43087;DHT22;28708;52.224;6.924;2023-05-19T10:57:54;23.50;64.20
43087;DHT22;28708;52.224;6.924;2023-05-19T11:00:27;22.00;65.50
43087;DHT22;28708;52.224;6.924;2023-05-19T11:02:53;22.00;67.80
43087;DHT22;28708;52.224;6.924;2023-05-19T11:05:28;23.50;66.70
43087;DHT22;28708;52.224;6.924;2023-05-19T11:07:57;24.00;61.10
43087;DHT22;28708;52.224;6.924;2023-05-19T11:10:29;23.80;64.30
43087;DHT22;28708;52.224;6.924;2023-05-19T11:12:56;24.00;63.90
43087;DHT22;28708;52.224;6.924;2023-05-19T11:15:25;24.60;59.70
43087;DHT22;28708;52.224;6.924;2023-05-19T11:17:51;25.00;60.10
43087;DHT22;28708;52.224;6.924;2023-05-19T11:20:22;24.90;61.00
43087;DHT22;28708;52.224;6.924;2023-05-19T11:28:09;23.80;61.10
43087;DHT22;28708;52.224;6.924;2023-05-19T11:30:36;22.90;62.80
43087;DHT22;28708;52.224;6.924;2023-05-19T11:33:03;22.10;63.10
43087;DHT22;28708;52.224;6.924;2023-05-19T11:35:30;21.90;63.80
43087;DHT22;28708;52.224;6.924;2023-05-19T11:37:57;21.60;65.90
43087;DHT22;28708;52.224;6.924;2023-05-19T11:40:24;21.00;69.30
43087;DHT22;28708;52.224;6.924;2023-05-19T11:42:51;21.00;67.70
43087;DHT22;28708;52.224;6.924;2023-05-19T11:45:23;20.70;68.00
43087;DHT22;28708;52.224;6.924;2023-05-19T11:47:50;21.00;68.00
43087;DHT22;28708;52.224;6.924;2023-05-19T11:50:16;20.60;69.50
43087;DHT22;28708;52.224;6.924;2023-05-19T11:52:44;20.20;69.20
43087;DHT22;28708;52.224;6.924;2023-05-19T11:55:15;19.80;70.50
43087;DHT22;28708;52.224;6.924;2023-05-19T11:57:41;19.70;72.80
43087;DHT22;28708;52.224;6.924;2023-05-19T12:00:09;20.00;71.30
43087;DHT22;28708;52.224;6.924;2023-05-19T12:02:36;20.50;70.50
43087;DHT22;28708;52.224;6.924;2023-05-19T12:05:02;20.80;70.10
43087;DHT22;28708;52.224;6.924;2023-05-19T12:07:28;20.60;70.30
43087;DHT22;28708;52.224;6.924;2023-05-19T12:09:53;20.20;69.50
43087;DHT22;28708;52.224;6.924;2023-05-19T12:12:20;20.10;70.90
43087;DHT22;28708;52.224;6.924;2023-05-19T12:14:48;20.30;68.50
43087;DHT22;28708;52.224;6.924;2023-05-19T12:17:16;20.40;69.10
43087;DHT22;28708;52.224;6.924;2023-05-19T12:19:45;20.30;69.60
43087;DHT22;28708;52.224;6.924;2023-05-19T12:22:12;19.90;70.80
43087;DHT22;28708;52.224;6.924;2023-05-19T12:24:39;19.70;72.20
43087;DHT22;28708;52.224;6.924;2023-05-19T12:27:26;19.50;72.10
43087;DHT22;28708;52.224;6.924;2023-05-19T12:29:53;19.50;71.70
43087;DHT22;28708;52.224;6.924;2023-05-19T12:32:26;19.80;70.80
43087;DHT22;28708;52.224;6.924;2023-05-19T12:34:54;20.10;72.50
43087;DHT22;28708;52.224;6.924;2023-05-19T12:37:20;20.40;70.10
43087;DHT22;28708;52.224;6.924;2023-05-19T12:39:47;20.50;71.70
43087;DHT22;28708;52.224;6.924;2023-05-19T12:42:15;20.10;67.80
43087;DHT22;28708;52.224;6.924;2023-05-19T12:44:49;19.70;72.80
43087;DHT22;28708;52.224;6.924;2023-05-19T12:47:16;19.70;71.20
43087;DHT22;28708;52.224;6.924;2023-05-19T12:52:30;20.70;68.10
43087;DHT22;28708;52.224;6.924;2023-05-19T12:57:40;20.60;69.60
43087;DHT22;28708;52.224;6.924;2023-05-19T13:00:13;20.60;69.70
43087;DHT22;28708;52.224;6.924;2023-05-19T13:03:01;20.40;71.30
43087;DHT22;28708;52.224;6.924;2023-05-19T13:05:36;20.20;72.50
43087;DHT22;28708;52.224;6.924;2023-05-19T13:08:07;20.60;71.20
43087;DHT22;28708;52.224;6.924;2023-05-19T13:10:35;20.70;69.40
43087;DHT22;28708;52.224;6.924;2023-05-19T13:13:02;20.50;68.60
43087;DHT22;28708;52.224;6.924;2023-05-19T13:15:30;20.60;68.60
43087;DHT22;28708;52.224;6.924;2023-05-19T13:18:00;20.40;68.10
43087;DHT22;28708;52.224;6.924;2023-05-19T13:20:26;20.60;68.80
43087;DHT22;28708;52.224;6.924;2023-05-19T13:22:51;20.60;69.30
43087;DHT22;28708;52.224;6.924;2023-05-19T13:25:18;20.20;69.30
43087;DHT22;28708;52.224;6.924;2023-05-19T13:27:44;20.50;69.70
43087;DHT22;28708;52.224;6.924;2023-05-19T13:30:13;20.60;66.70
43087;DHT22;28708;52.224;6.924;2023-05-19T13:32:40;20.90;67.90
43087;DHT22;28708;52.224;6.924;2023-05-19T13:35:07;21.10;66.30
43087;DHT22;28708;52.224;6.924;2023-05-19T13:37:33;20.80;68.70
43087;DHT22;28708;52.224;6.924;2023-05-19T13:39:59;20.70;67.30
43087;DHT22;28708;52.224;6.924;2023-05-19T13:42:25;20.80;69.40
43087;DHT22;28708;52.224;6.924;2023-05-19T13:44:54;21.20;67.00
43087;DHT22;28708;52.224;6.924;2023-05-19T13:47:24;20.80;68.80
43087;DHT22;28708;52.224;6.924;2023-05-19T13:49:51;20.90;68.30
43087;DHT22;28708;52.224;6.924;2023-05-19T13:52:17;21.00;66.60
43087;DHT22;28708;52.224;6.924;2023-05-19T13:54:42;21.40;68.20
43087;DHT22;28708;52.224;6.924;2023-05-19T13:57:08;21.60;65.20
43087;DHT22;28708;52.224;6.924;2023-05-19T13:59:34;21.40;67.10
43087;DHT22;28708;52.224;6.924;2023-05-19T14:02:00;20.90;68.30
43087;DHT22;28708;52.224;6.924;2023-05-19T14:04:29;20.60;69.20
43087;DHT22;28708;52.224;6.924;2023-05-19T14:06:55;20.10;68.00
43087;DHT22;28708;52.224;6.924;2023-05-19T14:09:21;20.10;68.80
43087;DHT22;28708;52.224;6.924;2023-05-19T14:11:47;20.70;69.20
43087;DHT22;28708;52.224;6.924;2023-05-19T14:14:13;21.20;68.50
43087;DHT22;28708;52.224;6.924;2023-05-19T14:16:39;21.40;66.90
43087;DHT22;28708;52.224;6.924;2023-05-19T14:19:05;21.50;66.50
43087;DHT22;28708;52.224;6.924;2023-05-19T14:21:31;21.20;69.20
43087;DHT22;28708;52.224;6.924;2023-05-19T14:23:57;20.80;69.50
43087;DHT22;28708;52.224;6.924;2023-05-19T14:26:22;20.60;70.20
43087;DHT22;28708;52.224;6.924;2023-05-19T14:28:48;20.80;70.10
43087;DHT22;28708;52.224;6.924;2023-05-19T14:31:14;21.20;68.60
43087;DHT22;28708;52.224;6.924;2023-05-19T14:33:40;21.40;68.80
43087;DHT22;28708;52.224;6.924;2023-05-19T14:36:07;21.40;69.20
43087;DHT22;28708;52.224;6.924;2023-05-19T14:38:33;21.90;66.80
43087;DHT22;28708;52.224;6.924;2023-05-19T14:40:58;22.20;65.10
43087;DHT22;28708;52.224;6.924;2023-05-19T14:43:24;22.00;66.00
43087;DHT22;28708;52.224;6.924;2023-05-19T14:45:50;21.30;66.50
43087;DHT22;28708;52.224;6.924;2023-05-19T14:48:16;20.80;69.20
43087;DHT22;28708;52.224;6.924;2023-05-19T14:50:42;20.50;69.70
43087;DHT22;28708;52.224;6.924;2023-05-19T14:53:07;20.40;69.10
43087;DHT22;28708;52.224;6.924;2023-05-19T14:55:33;20.70;69.30
43087;DHT22;28708;52.224;6.924;2023-05-19T14:57:59;21.30;66.10
43087;DHT22;28708;52.224;6.924;2023-05-19T15:00:24;21.50;66.10
43087;DHT22;28708;52.224;6.924;2023-05-19T15:02:51;21.60;66.30
43087;DHT22;28708;52.224;6.924;2023-05-19T15:05:17;21.60;66.30
43087;DHT22;28708;52.224;6.924;2023-05-19T15:07:43;20.80;68.60
43087;DHT22;28708;52.224;6.924;2023-05-19T15:10:09;20.40;67.90
43087;DHT22;28708;52.224;6.924;2023-05-19T15:12:35;19.90;67.00
43087;DHT22;28708;52.224;6.924;2023-05-19T15:15:00;19.80;67.80
43087;DHT22;28708;52.224;6.924;2023-05-19T15:17:26;19.60;69.70
43087;DHT22;28708;52.224;6.924;2023-05-19T15:19:52;19.50;69.40
43087;DHT22;28708;52.224;6.924;2023-05-19T15:22:17;19.60;69.50
43087;DHT22;28708;52.224;6.924;2023-05-19T15:24:43;19.70;71.00
43087;DHT22;28708;52.224;6.924;2023-05-19T15:27:08;20.20;68.50
43087;DHT22;28708;52.224;6.924;2023-05-19T15:29:34;20.40;68.70
43087;DHT22;28708;52.224;6.924;2023-05-19T15:32:00;20.70;69.30
43087;DHT22;28708;52.224;6.924;2023-05-19T15:34:26;20.80;67.70
43087;DHT22;28708;52.224;6.924;2023-05-19T15:36:51;20.70;67.20
43087;DHT22;28708;52.224;6.924;2023-05-19T15:39:17;20.70;67.60
43087;DHT22;28708;52.224;6.924;2023-05-19T15:41:43;20.60;67.30
43087;DHT22;28708;52.224;6.924;2023-05-19T15:44:09;20.60;66.40
43087;DHT22;28708;52.224;6.924;2023-05-19T15:46:34;20.70;67.30
43087;DHT22;28708;52.224;6.924;2023-05-19T15:49:00;20.80;68.00
43087;DHT22;28708;52.224;6.924;2023-05-19T15:51:26;20.80;67.90
43087;DHT22;28708;52.224;6.924;2023-05-19T15:53:52;20.60;68.50
43087;DHT22;28708;52.224;6.924;2023-05-19T15:56:20;20.10;68.40
43087;DHT22;28708;52.224;6.924;2023-05-19T15:58:47;19.80;69.30
43087;DHT22;28708;52.224;6.924;2023-05-19T16:01:13;19.50;69.90
43087;DHT22;28708;52.224;6.924;2023-05-19T16:03:39;19.60;69.60
43087;DHT22;28708;52.224;6.924;2023-05-19T16:06:05;19.80;70.80
43087;DHT22;28708;52.224;6.924;2023-05-19T16:08:31;20.00;68.40
43087;DHT22;28708;52.224;6.924;2023-05-19T16:10:56;20.30;69.00
43087;DHT22;28708;52.224;6.924;2023-05-19T16:13:22;20.40;68.90